sensor_id;sensor_type;location;lat;lon;timestamp;P1;durP1;ratioP1;P2;durP2;ratioP2
54545;SDS011;40444;45.184;9.850;2022-12-20T00:01:52;70.60;;;41.45;;
54545;SDS011;40444;45.184;9.850;2022-12-20T00:04:20;67.40;;;39.55;;
54545;SDS011;40444;45.184;9.850;2022-12-20T00:06:49;68.97;;;41.28;;
54545;SDS011;40444;45.184;9.850;2022-12-20T00:09:17;65.28;;;41.08;;
54545;SDS011;40444;45.184;9.850;2022-12-20T00:11:45;64.32;;;41.05;;
54545;SDS011;40444;45.184;9.850;2022-12-20T00:14:14;68.07;;;41.53;;
54545;SDS011;40444;45.184;9.850;2022-12-20T00:16:42;68.78;;;42.25;;
54545;SDS011;40444;45.184;9.850;2022-12-20T00:19:10;66.97;;;41.78;;
54545;SDS011;40444;45.184;9.850;2022-12-20T00:21:39;70.00;;;41.42;;
54545;SDS011;40444;45.184;9.850;2022-12-20T00:24:08;64.95;;;40.10;;
54545;SDS011;40444;45.184;9.850;2022-12-20T00:26:37;67.00;;;42.80;;
54545;SDS011;40444;45.184;9.850;2022-12-20T00:29:05;67.85;;;41.30;;
54545;SDS011;40444;45.184;9.850;2022-12-20T00:31:33;67.70;;;40.55;;
54545;SDS011;40444;45.184;9.850;2022-12-20T00:34:02;64.72;;;41.90;;
54545;SDS011;40444;45.184;9.850;2022-12-20T00:36:31;64.40;;;41.50;;
54545;SDS011;40444;45.184;9.850;2022-12-20T00:39:00;65.22;;;41.25;;
54545;SDS011;40444;45.184;9.850;2022-12-20T00:41:30;73.03;;;42.75;;
54545;SDS011;40444;45.184;9.850;2022-12-20T00:44:00;65.80;;;42.08;;
54545;SDS011;40444;45.184;9.850;2022-12-20T00:46:30;66.88;;;41.50;;
54545;SDS011;40444;45.184;9.850;2022-12-20T00:48:59;66.00;;;41.85;;
54545;SDS011;40444;45.184;9.850;2022-12-20T00:51:28;62.40;;;39.90;;
54545;SDS011;40444;45.184;9.850;2022-12-20T00:53:57;63.05;;;41.35;;
54545;SDS011;40444;45.184;9.850;2022-12-20T00:56:25;60.88;;;41.88;;
54545;SDS011;40444;45.184;9.850;2022-12-20T00:58:56;71.85;;;42.33;;
54545;SDS011;40444;45.184;9.850;2022-12-20T01:01:30;67.45;;;41.83;;
54545;SDS011;40444;45.184;9.850;2022-12-20T01:03:59;67.97;;;41.78;;
54545;SDS011;40444;45.184;9.850;2022-12-20T01:06:28;65.55;;;41.90;;
54545;SDS011;40444;45.184;9.850;2022-12-20T01:08:58;65.68;;;41.83;;
54545;SDS011;40444;45.184;9.850;2022-12-20T01:11:30;62.92;;;41.53;;
54545;SDS011;40444;45.184;9.850;2022-12-20T01:14:03;64.15;;;40.10;;
54545;SDS011;40444;45.184;9.850;2022-12-20T01:16:35;62.15;;;39.40;;
54545;SDS011;40444;45.184;9.850;2022-12-20T01:19:06;62.92;;;42.15;;
54545;SDS011;40444;45.184;9.850;2022-12-20T01:21:36;62.38;;;41.35;;
54545;SDS011;40444;45.184;9.850;2022-12-20T01:24:11;65.95;;;42.25;;
54545;SDS011;40444;45.184;9.850;2022-12-20T01:26:41;64.07;;;39.97;;
54545;SDS011;40444;45.184;9.850;2022-12-20T01:29:10;64.18;;;41.10;;
54545;SDS011;40444;45.184;9.850;2022-12-20T01:31:41;60.75;;;41.20;;
54545;SDS011;40444;45.184;9.850;2022-12-20T01:34:11;60.92;;;40.33;;
54545;SDS011;40444;45.184;9.850;2022-12-20T01:36:39;67.68;;;42.55;;
54545;SDS011;40444;45.184;9.850;2022-12-20T01:39:13;66.82;;;42.05;;
54545;SDS011;40444;45.184;9.850;2022-12-20T01:41:43;66.53;;;42.88;;
54545;SDS011;40444;45.184;9.850;2022-12-20T01:45:00;68.00;;;42.47;;
54545;SDS011;40444;45.184;9.850;2022-12-20T01:47:02;69.07;;;43.30;;
54545;SDS011;40444;45.184;9.850;2022-12-20T01:49:32;60.67;;;41.08;;
54545;SDS011;40444;45.184;9.850;2022-12-20T01:52:18;64.90;;;42.27;;
54545;SDS011;40444;45.184;9.850;2022-12-20T01:55:35;67.00;;;41.38;;
54545;SDS011;40444;45.184;9.850;2022-12-20T01:57:47;65.53;;;41.22;;
54545;SDS011;40444;45.184;9.850;2022-12-20T02:00:26;64.07;;;40.13;;
54545;SDS011;40444;45.184;9.850;2022-12-20T02:02:57;65.68;;;42.90;;
54545;SDS011;40444;45.184;9.850;2022-12-20T02:05:28;63.97;;;39.85;;
54545;SDS011;40444;45.184;9.850;2022-12-20T02:08:02;65.47;;;42.55;;
54545;SDS011;40444;45.184;9.850;2022-12-20T02:13:26;65.78;;;41.13;;
54545;SDS011;40444;45.184;9.850;2022-12-20T02:15:58;72.40;;;42.78;;
54545;SDS011;40444;45.184;9.850;2022-12-20T02:32:35;67.45;;;41.80;;
54545;SDS011;40444;45.184;9.850;2022-12-20T02:35:12;65.78;;;42.45;;
54545;SDS011;40444;45.184;9.850;2022-12-20T02:37:49;65.50;;;41.67;;
54545;SDS011;40444;45.184;9.850;2022-12-20T02:40:21;69.70;;;41.80;;
54545;SDS011;40444;45.184;9.850;2022-12-20T02:42:54;70.97;;;43.53;;
54545;SDS011;40444;45.184;9.850;2022-12-20T02:45:27;69.28;;;42.92;;
54545;SDS011;40444;45.184;9.850;2022-12-20T02:48:05;69.13;;;42.60;;
54545;SDS011;40444;45.184;9.850;2022-12-20T02:50:38;69.93;;;43.25;;
54545;SDS011;40444;45.184;9.850;2022-12-20T02:53:11;71.57;;;43.42;;
54545;SDS011;40444;45.184;9.850;2022-12-20T02:55:45;65.75;;;40.90;;
54545;SDS011;40444;45.184;9.850;2022-12-20T02:58:35;72.05;;;43.55;;
54545;SDS011;40444;45.184;9.850;2022-12-20T03:01:18;65.93;;;41.85;;
54545;SDS011;40444;45.184;9.850;2022-12-20T03:03:53;69.30;;;42.15;;
54545;SDS011;40444;45.184;9.850;2022-12-20T03:06:22;70.72;;;43.95;;
54545;SDS011;40444;45.184;9.850;2022-12-20T03:08:50;69.43;;;42.33;;
54545;SDS011;40444;45.184;9.850;2022-12-20T03:11:21;72.07;;;42.92;;
54545;SDS011;40444;45.184;9.850;2022-12-20T03:13:50;69.53;;;43.22;;
54545;SDS011;40444;45.184;9.850;2022-12-20T03:16:19;70.40;;;43.03;;
54545;SDS011;40444;45.184;9.850;2022-12-20T03:18:47;68.90;;;42.20;;
54545;SDS011;40444;45.184;9.850;2022-12-20T03:21:16;74.13;;;44.47;;
54545;SDS011;40444;45.184;9.850;2022-12-20T03:23:44;72.80;;;43.17;;
54545;SDS011;40444;45.184;9.850;2022-12-20T03:26:13;73.53;;;44.38;;
54545;SDS011;40444;45.184;9.850;2022-12-20T03:28:46;68.70;;;42.30;;
54545;SDS011;40444;45.184;9.850;2022-12-20T03:31:18;76.97;;;45.17;;
54545;SDS011;40444;45.184;9.850;2022-12-20T03:33:51;79.00;;;45.40;;
54545;SDS011;40444;45.184;9.850;2022-12-20T03:36:19;75.53;;;46.28;;
54545;SDS011;40444;45.184;9.850;2022-12-20T03:38:55;73.60;;;44.35;;
54545;SDS011;40444;45.184;9.850;2022-12-20T03:41:26;75.50;;;45.47;;
54545;SDS011;40444;45.184;9.850;2022-12-20T03:43:54;70.18;;;43.00;;
54545;SDS011;40444;45.184;9.850;2022-12-20T03:46:24;72.90;;;44.55;;
54545;SDS011;40444;45.184;9.850;2022-12-20T03:48:53;75.25;;;44.72;;
54545;SDS011;40444;45.184;9.850;2022-12-20T03:51:22;75.70;;;45.38;;
54545;SDS011;40444;45.184;9.850;2022-12-20T03:53:51;76.45;;;46.22;;
54545;SDS011;40444;45.184;9.850;2022-12-20T03:56:23;76.57;;;45.30;;
54545;SDS011;40444;45.184;9.850;2022-12-20T03:58:52;68.32;;;44.22;;
54545;SDS011;40444;45.184;9.850;2022-12-20T04:01:21;74.28;;;45.45;;
54545;SDS011;40444;45.184;9.850;2022-12-20T04:03:54;71.65;;;44.95;;
54545;SDS011;40444;45.184;9.850;2022-12-20T04:06:23;76.68;;;46.17;;
54545;SDS011;40444;45.184;9.850;2022-12-20T04:08:51;76.50;;;45.03;;
54545;SDS011;40444;45.184;9.850;2022-12-20T04:11:26;76.05;;;44.33;;
54545;SDS011;40444;45.184;9.850;2022-12-20T04:14:03;78.00;;;45.67;;
54545;SDS011;40444;45.184;9.850;2022-12-20T04:16:33;77.78;;;44.67;;
54545;SDS011;40444;45.184;9.850;2022-12-20T04:19:01;70.65;;;43.85;;
54545;SDS011;40444;45.184;9.850;2022-12-20T04:21:35;80.65;;;45.42;;
54545;SDS011;40444;45.184;9.850;2022-12-20T04:24:04;78.80;;;47.92;;
54545;SDS011;40444;45.184;9.850;2022-12-20T04:26:53;78.72;;;46.42;;
54545;SDS011;40444;45.184;9.850;2022-12-20T04:29:22;75.43;;;45.70;;
54545;SDS011;40444;45.184;9.850;2022-12-20T04:31:51;79.68;;;46.53;;
54545;SDS011;40444;45.184;9.850;2022-12-20T04:34:21;79.15;;;45.45;;
54545;SDS011;40444;45.184;9.850;2022-12-20T04:36:50;79.88;;;46.40;;
54545;SDS011;40444;45.184;9.850;2022-12-20T04:39:29;74.07;;;44.67;;
54545;SDS011;40444;45.184;9.850;2022-12-20T04:42:19;78.05;;;45.47;;
54545;SDS011;40444;45.184;9.850;2022-12-20T04:44:49;79.90;;;47.35;;
54545;SDS011;40444;45.184;9.850;2022-12-20T04:47:23;75.18;;;44.03;;
54545;SDS011;40444;45.184;9.850;2022-12-20T04:49:53;73.28;;;43.75;;
54545;SDS011;40444;45.184;9.850;2022-12-20T04:52:22;81.65;;;44.85;;
54545;SDS011;40444;45.184;9.850;2022-12-20T04:55:15;72.95;;;43.60;;
54545;SDS011;40444;45.184;9.850;2022-12-20T04:57:43;74.68;;;43.90;;
54545;SDS011;40444;45.184;9.850;2022-12-20T05:00:12;77.88;;;46.90;;
54545;SDS011;40444;45.184;9.850;2022-12-20T05:02:45;71.93;;;43.08;;
54545;SDS011;40444;45.184;9.850;2022-12-20T05:05:17;75.55;;;45.03;;
54545;SDS011;40444;45.184;9.850;2022-12-20T05:07:50;72.10;;;42.80;;
54545;SDS011;40444;45.184;9.850;2022-12-20T05:10:19;77.47;;;44.65;;
54545;SDS011;40444;45.184;9.850;2022-12-20T05:12:49;72.90;;;44.47;;
54545;SDS011;40444;45.184;9.850;2022-12-20T05:15:33;73.57;;;42.25;;
54545;SDS011;40444;45.184;9.850;2022-12-20T05:18:02;73.28;;;44.05;;
54545;SDS011;40444;45.184;9.850;2022-12-20T16:07:17;41.60;;;27.57;;
54545;SDS011;40444;45.184;9.850;2022-12-20T16:09:46;39.05;;;26.92;;
54545;SDS011;40444;45.184;9.850;2022-12-20T16:12:15;37.28;;;26.08;;
54545;SDS011;40444;45.184;9.850;2022-12-20T16:14:48;37.40;;;25.88;;
54545;SDS011;40444;45.184;9.850;2022-12-20T16:17:16;35.50;;;24.35;;
54545;SDS011;40444;45.184;9.850;2022-12-20T16:19:44;32.38;;;23.60;;
54545;SDS011;40444;45.184;9.850;2022-12-20T16:22:14;31.27;;;22.40;;
54545;SDS011;40444;45.184;9.850;2022-12-20T16:24:45;32.20;;;23.90;;
54545;SDS011;40444;45.184;9.850;2022-12-20T16:27:13;33.70;;;24.25;;
54545;SDS011;40444;45.184;9.850;2022-12-20T16:29:42;32.30;;;23.70;;
54545;SDS011;40444;45.184;9.850;2022-12-20T16:32:17;31.02;;;22.80;;
54545;SDS011;40444;45.184;9.850;2022-12-20T16:34:49;31.45;;;23.15;;
54545;SDS011;40444;45.184;9.850;2022-12-20T16:37:18;30.13;;;22.30;;
54545;SDS011;40444;45.184;9.850;2022-12-20T16:39:46;32.47;;;22.88;;
54545;SDS011;40444;45.184;9.850;2022-12-20T16:42:16;32.88;;;22.85;;
54545;SDS011;40444;45.184;9.850;2022-12-20T16:44:49;30.02;;;22.40;;
54545;SDS011;40444;45.184;9.850;2022-12-20T16:47:19;31.13;;;23.25;;
54545;SDS011;40444;45.184;9.850;2022-12-20T16:49:48;32.97;;;21.67;;
54545;SDS011;40444;45.184;9.850;2022-12-20T16:52:20;32.10;;;23.67;;
54545;SDS011;40444;45.184;9.850;2022-12-20T16:54:49;37.83;;;27.13;;
54545;SDS011;40444;45.184;9.850;2022-12-20T16:57:18;32.78;;;23.38;;
54545;SDS011;40444;45.184;9.850;2022-12-20T16:59:48;33.17;;;23.50;;
54545;SDS011;40444;45.184;9.850;2022-12-20T17:02:29;35.55;;;25.00;;
54545;SDS011;40444;45.184;9.850;2022-12-20T17:05:00;29.85;;;21.75;;
54545;SDS011;40444;45.184;9.850;2022-12-20T17:07:28;32.85;;;24.45;;
54545;SDS011;40444;45.184;9.850;2022-12-20T17:10:00;30.75;;;22.95;;
54545;SDS011;40444;45.184;9.850;2022-12-20T17:12:37;31.75;;;22.95;;
54545;SDS011;40444;45.184;9.850;2022-12-20T17:15:08;31.92;;;24.85;;
54545;SDS011;40444;45.184;9.850;2022-12-20T17:17:47;33.75;;;23.88;;
54545;SDS011;40444;45.184;9.850;2022-12-20T17:20:18;30.60;;;22.55;;
54545;SDS011;40444;45.184;9.850;2022-12-20T17:22:47;32.42;;;22.48;;
54545;SDS011;40444;45.184;9.850;2022-12-20T17:25:19;30.88;;;22.40;;
54545;SDS011;40444;45.184;9.850;2022-12-20T17:27:56;30.98;;;22.67;;
54545;SDS011;40444;45.184;9.850;2022-12-20T17:30:24;33.60;;;24.33;;
54545;SDS011;40444;45.184;9.850;2022-12-20T17:32:53;31.10;;;23.63;;
54545;SDS011;40444;45.184;9.850;2022-12-20T17:35:23;34.60;;;23.73;;
54545;SDS011;40444;45.184;9.850;2022-12-20T17:37:57;34.30;;;23.73;;
54545;SDS011;40444;45.184;9.850;2022-12-20T17:40:27;33.30;;;24.77;;
54545;SDS011;40444;45.184;9.850;2022-12-20T17:42:55;34.33;;;23.60;;
54545;SDS011;40444;45.184;9.850;2022-12-20T17:47:57;32.65;;;23.08;;
54545;SDS011;40444;45.184;9.850;2022-12-20T17:50:26;32.00;;;22.98;;
54545;SDS011;40444;45.184;9.850;2022-12-20T17:52:55;37.15;;;25.73;;
54545;SDS011;40444;45.184;9.850;2022-12-20T17:55:24;30.83;;;22.50;;
54545;SDS011;40444;45.184;9.850;2022-12-20T17:57:55;32.50;;;23.58;;
54545;SDS011;40444;45.184;9.850;2022-12-20T18:00:27;33.70;;;24.35;;
54545;SDS011;40444;45.184;9.850;2022-12-20T18:03:05;30.60;;;23.38;;
54545;SDS011;40444;45.184;9.850;2022-12-20T18:05:34;31.23;;;23.55;;
54545;SDS011;40444;45.184;9.850;2022-12-20T18:08:02;31.50;;;23.20;;
54545;SDS011;40444;45.184;9.850;2022-12-20T18:10:30;32.60;;;24.13;;
54545;SDS011;40444;45.184;9.850;2022-12-20T18:12:59;36.08;;;25.98;;
54545;SDS011;40444;45.184;9.850;2022-12-20T18:15:27;39.00;;;25.27;;
54545;SDS011;40444;45.184;9.850;2022-12-20T18:17:55;33.67;;;25.05;;
54545;SDS011;40444;45.184;9.850;2022-12-20T18:20:24;37.40;;;25.80;;
54545;SDS011;40444;45.184;9.850;2022-12-20T18:22:52;36.17;;;24.70;;
54545;SDS011;40444;45.184;9.850;2022-12-20T18:25:20;32.45;;;24.15;;
54545;SDS011;40444;45.184;9.850;2022-12-20T18:27:48;32.10;;;25.35;;
54545;SDS011;40444;45.184;9.850;2022-12-20T18:30:17;33.10;;;24.00;;
54545;SDS011;40444;45.184;9.850;2022-12-20T18:32:48;34.00;;;24.45;;
54545;SDS011;40444;45.184;9.850;2022-12-20T18:35:16;34.00;;;23.77;;
54545;SDS011;40444;45.184;9.850;2022-12-20T18:37:45;35.08;;;25.05;;
54545;SDS011;40444;45.184;9.850;2022-12-20T18:40:14;33.63;;;23.65;;
54545;SDS011;40444;45.184;9.850;2022-12-20T18:42:43;31.98;;;23.55;;
54545;SDS011;40444;45.184;9.850;2022-12-20T18:45:11;31.88;;;22.58;;
54545;SDS011;40444;45.184;9.850;2022-12-20T18:47:40;31.88;;;22.58;;
54545;SDS011;40444;45.184;9.850;2022-12-20T18:50:08;32.67;;;23.35;;
54545;SDS011;40444;45.184;9.850;2022-12-20T18:52:39;31.33;;;24.08;;
54545;SDS011;40444;45.184;9.850;2022-12-20T18:55:13;32.83;;;24.45;;
54545;SDS011;40444;45.184;9.850;2022-12-20T18:57:42;32.90;;;24.50;;
54545;SDS011;40444;45.184;9.850;2022-12-20T19:00:11;32.40;;;24.38;;
54545;SDS011;40444;45.184;9.850;2022-12-20T19:02:40;34.60;;;23.20;;
54545;SDS011;40444;45.184;9.850;2022-12-20T19:05:08;34.97;;;25.00;;
54545;SDS011;40444;45.184;9.850;2022-12-20T19:07:37;34.00;;;23.05;;
54545;SDS011;40444;45.184;9.850;2022-12-20T19:10:05;34.63;;;23.98;;
54545;SDS011;40444;45.184;9.850;2022-12-20T19:12:34;33.05;;;23.05;;
54545;SDS011;40444;45.184;9.850;2022-12-20T19:15:03;33.70;;;23.33;;
54545;SDS011;40444;45.184;9.850;2022-12-20T19:17:32;32.85;;;22.60;;
54545;SDS011;40444;45.184;9.850;2022-12-20T19:20:00;32.85;;;21.52;;
54545;SDS011;40444;45.184;9.850;2022-12-20T19:22:29;29.60;;;20.83;;
54545;SDS011;40444;45.184;9.850;2022-12-20T19:24:57;26.85;;;20.63;;
54545;SDS011;40444;45.184;9.850;2022-12-20T19:27:26;30.88;;;21.80;;
54545;SDS011;40444;45.184;9.850;2022-12-20T19:29:54;28.58;;;21.30;;
54545;SDS011;40444;45.184;9.850;2022-12-20T19:32:22;27.05;;;20.95;;
54545;SDS011;40444;45.184;9.850;2022-12-20T19:34:51;29.88;;;22.25;;
54545;SDS011;40444;45.184;9.850;2022-12-20T19:37:19;29.27;;;21.58;;
54545;SDS011;40444;45.184;9.850;2022-12-20T19:39:48;31.10;;;22.30;;
54545;SDS011;40444;45.184;9.850;2022-12-20T19:42:16;34.20;;;22.90;;
54545;SDS011;40444;45.184;9.850;2022-12-20T19:44:50;30.20;;;22.38;;
54545;SDS011;40444;45.184;9.850;2022-12-20T19:47:19;34.00;;;23.95;;
54545;SDS011;40444;45.184;9.850;2022-12-20T19:49:48;30.02;;;22.80;;
54545;SDS011;40444;45.184;9.850;2022-12-20T19:52:25;35.93;;;24.07;;
54545;SDS011;40444;45.184;9.850;2022-12-20T19:54:56;30.17;;;22.88;;
54545;SDS011;40444;45.184;9.850;2022-12-20T19:57:24;29.27;;;22.50;;
54545;SDS011;40444;45.184;9.850;2022-12-20T19:59:53;30.30;;;22.23;;
54545;SDS011;40444;45.184;9.850;2022-12-20T20:02:22;35.47;;;24.63;;
54545;SDS011;40444;45.184;9.850;2022-12-20T20:04:52;29.40;;;22.73;;
54545;SDS011;40444;45.184;9.850;2022-12-20T20:07:23;35.58;;;24.35;;
54545;SDS011;40444;45.184;9.850;2022-12-20T20:09:52;33.50;;;23.88;;
54545;SDS011;40444;45.184;9.850;2022-12-20T20:12:22;32.38;;;22.23;;
54545;SDS011;40444;45.184;9.850;2022-12-20T20:14:50;32.20;;;23.73;;
54545;SDS011;40444;45.184;9.850;2022-12-20T20:17:19;31.65;;;23.83;;
54545;SDS011;40444;45.184;9.850;2022-12-20T20:19:48;33.17;;;23.83;;
54545;SDS011;40444;45.184;9.850;2022-12-20T20:22:18;34.75;;;23.90;;
54545;SDS011;40444;45.184;9.850;2022-12-20T20:24:49;33.05;;;24.30;;
54545;SDS011;40444;45.184;9.850;2022-12-20T20:27:17;30.08;;;23.55;;
54545;SDS011;40444;45.184;9.850;2022-12-20T20:29:47;37.08;;;24.92;;
54545;SDS011;40444;45.184;9.850;2022-12-20T20:32:17;30.05;;;22.70;;
54545;SDS011;40444;45.184;9.850;2022-12-20T20:34:45;34.95;;;24.55;;
54545;SDS011;40444;45.184;9.850;2022-12-20T20:37:14;31.25;;;22.10;;
54545;SDS011;40444;45.184;9.850;2022-12-20T20:39:43;31.40;;;23.15;;
54545;SDS011;40444;45.184;9.850;2022-12-20T20:42:11;29.98;;;23.35;;
54545;SDS011;40444;45.184;9.850;2022-12-20T20:44:47;33.37;;;24.20;;
54545;SDS011;40444;45.184;9.850;2022-12-20T20:47:16;33.35;;;22.65;;
54545;SDS011;40444;45.184;9.850;2022-12-20T20:49:44;31.70;;;23.17;;
54545;SDS011;40444;45.184;9.850;2022-12-20T20:52:14;31.83;;;22.88;;
54545;SDS011;40444;45.184;9.850;2022-12-20T20:54:43;31.60;;;23.60;;
54545;SDS011;40444;45.184;9.850;2022-12-20T20:57:11;31.60;;;23.83;;
54545;SDS011;40444;45.184;9.850;2022-12-20T20:59:39;31.77;;;23.95;;
54545;SDS011;40444;45.184;9.850;2022-12-20T21:02:12;34.40;;;24.90;;
54545;SDS011;40444;45.184;9.850;2022-12-20T21:04:41;30.33;;;22.80;;
54545;SDS011;40444;45.184;9.850;2022-12-20T21:07:30;32.83;;;23.58;;
54545;SDS011;40444;45.184;9.850;2022-12-20T21:09:58;35.10;;;25.42;;
54545;SDS011;40444;45.184;9.850;2022-12-20T21:12:27;32.35;;;24.45;;
54545;SDS011;40444;45.184;9.850;2022-12-20T21:14:55;32.03;;;24.45;;
54545;SDS011;40444;45.184;9.850;2022-12-20T21:17:44;34.08;;;25.70;;
54545;SDS011;40444;45.184;9.850;2022-12-20T21:20:12;34.75;;;25.17;;
54545;SDS011;40444;45.184;9.850;2022-12-20T21:22:45;35.05;;;25.92;;
54545;SDS011;40444;45.184;9.850;2022-12-20T21:25:13;35.13;;;26.45;;
54545;SDS011;40444;45.184;9.850;2022-12-20T21:27:42;36.60;;;26.30;;
54545;SDS011;40444;45.184;9.850;2022-12-20T21:30:10;36.95;;;27.50;;
54545;SDS011;40444;45.184;9.850;2022-12-20T21:32:39;36.85;;;26.63;;
54545;SDS011;40444;45.184;9.850;2022-12-20T21:35:07;38.05;;;27.80;;
54545;SDS011;40444;45.184;9.850;2022-12-20T21:37:36;37.35;;;27.17;;
54545;SDS011;40444;45.184;9.850;2022-12-20T21:40:05;38.25;;;26.15;;
54545;SDS011;40444;45.184;9.850;2022-12-20T21:42:34;34.83;;;25.77;;
54545;SDS011;40444;45.184;9.850;2022-12-20T21:45:02;38.75;;;26.75;;
54545;SDS011;40444;45.184;9.850;2022-12-20T21:47:33;34.20;;;25.85;;
54545;SDS011;40444;45.184;9.850;2022-12-20T21:50:02;34.80;;;25.48;;
54545;SDS011;40444;45.184;9.850;2022-12-20T21:52:30;33.25;;;25.13;;
54545;SDS011;40444;45.184;9.850;2022-12-20T21:54:59;35.55;;;26.90;;
54545;SDS011;40444;45.184;9.850;2022-12-20T21:57:27;37.72;;;28.40;;
54545;SDS011;40444;45.184;9.850;2022-12-20T21:59:56;37.03;;;26.02;;
54545;SDS011;40444;45.184;9.850;2022-12-20T22:02:24;34.53;;;26.35;;
54545;SDS011;40444;45.184;9.850;2022-12-20T22:04:53;35.58;;;26.38;;
54545;SDS011;40444;45.184;9.850;2022-12-20T22:07:21;37.13;;;27.17;;
54545;SDS011;40444;45.184;9.850;2022-12-20T22:09:50;35.22;;;26.55;;
54545;SDS011;40444;45.184;9.850;2022-12-20T22:12:18;36.38;;;27.02;;
54545;SDS011;40444;45.184;9.850;2022-12-20T22:14:47;34.33;;;25.92;;
54545;SDS011;40444;45.184;9.850;2022-12-20T22:17:15;36.85;;;27.35;;
54545;SDS011;40444;45.184;9.850;2022-12-20T22:19:44;36.60;;;28.30;;
54545;SDS011;40444;45.184;9.850;2022-12-20T22:22:12;38.33;;;28.33;;
54545;SDS011;40444;45.184;9.850;2022-12-20T22:24:40;39.47;;;28.42;;
54545;SDS011;40444;45.184;9.850;2022-12-20T22:27:09;40.17;;;28.98;;
54545;SDS011;40444;45.184;9.850;2022-12-20T22:29:38;38.00;;;28.77;;
54545;SDS011;40444;45.184;9.850;2022-12-20T22:32:06;39.05;;;28.20;;
54545;SDS011;40444;45.184;9.850;2022-12-20T22:34:34;39.45;;;28.98;;
54545;SDS011;40444;45.184;9.850;2022-12-20T22:37:03;38.53;;;28.45;;
54545;SDS011;40444;45.184;9.850;2022-12-20T22:39:32;38.55;;;28.48;;
54545;SDS011;40444;45.184;9.850;2022-12-20T22:42:00;40.85;;;28.83;;
54545;SDS011;40444;45.184;9.850;2022-12-20T22:44:29;36.83;;;28.38;;
54545;SDS011;40444;45.184;9.850;2022-12-20T22:46:57;36.03;;;28.20;;
54545;SDS011;40444;45.184;9.850;2022-12-20T22:49:26;38.42;;;28.17;;
54545;SDS011;40444;45.184;9.850;2022-12-20T22:51:55;39.40;;;29.55;;
54545;SDS011;40444;45.184;9.850;2022-12-20T22:54:34;39.58;;;28.15;;
54545;SDS011;40444;45.184;9.850;2022-12-20T22:57:02;38.55;;;29.77;;
54545;SDS011;40444;45.184;9.850;2022-12-20T22:59:31;42.70;;;30.77;;
54545;SDS011;40444;45.184;9.850;2022-12-20T23:02:01;39.50;;;29.80;;
54545;SDS011;40444;45.184;9.850;2022-12-20T23:04:29;38.65;;;28.73;;
54545;SDS011;40444;45.184;9.850;2022-12-20T23:06:58;41.55;;;30.42;;
54545;SDS011;40444;45.184;9.850;2022-12-20T23:09:26;46.08;;;31.67;;
54545;SDS011;40444;45.184;9.850;2022-12-20T23:11:55;42.97;;;30.23;;
54545;SDS011;40444;45.184;9.850;2022-12-20T23:14:42;41.80;;;31.27;;
54545;SDS011;40444;45.184;9.850;2022-12-20T23:17:31;38.72;;;30.05;;
54545;SDS011;40444;45.184;9.850;2022-12-20T23:20:00;40.60;;;29.45;;
54545;SDS011;40444;45.184;9.850;2022-12-20T23:22:46;42.42;;;31.02;;
54545;SDS011;40444;45.184;9.850;2022-12-20T23:25:16;38.88;;;30.05;;
54545;SDS011;40444;45.184;9.850;2022-12-20T23:27:46;40.00;;;29.70;;
54545;SDS011;40444;45.184;9.850;2022-12-20T23:30:17;41.72;;;32.30;;
54545;SDS011;40444;45.184;9.850;2022-12-20T23:32:47;36.53;;;27.85;;
54545;SDS011;40444;45.184;9.850;2022-12-20T23:35:17;41.40;;;30.02;;
54545;SDS011;40444;45.184;9.850;2022-12-20T23:37:47;39.08;;;30.25;;
54545;SDS011;40444;45.184;9.850;2022-12-20T23:40:16;39.85;;;29.58;;
54545;SDS011;40444;45.184;9.850;2022-12-20T23:42:44;36.95;;;29.52;;
54545;SDS011;40444;45.184;9.850;2022-12-20T23:45:13;39.85;;;30.23;;
54545;SDS011;40444;45.184;9.850;2022-12-20T23:47:42;37.65;;;29.40;;
54545;SDS011;40444;45.184;9.850;2022-12-20T23:50:10;38.75;;;30.50;;
54545;SDS011;40444;45.184;9.850;2022-12-20T23:52:39;41.17;;;30.15;;
54545;SDS011;40444;45.184;9.850;2022-12-20T23:55:07;39.63;;;30.75;;
54545;SDS011;40444;45.184;9.850;2022-12-20T23:57:36;39.08;;;30.10;;
